sensor_id;sensor_type;location;lat;lon;timestamp;P1;durP1;ratioP1;P2;durP2;ratioP2
40793;SDS011;26502;51.886;15.604;2023-07-29T00:03:49;5.50;;;4.20;;
40793;SDS011;26502;51.886;15.604;2023-07-29T00:08:52;11.90;;;4.50;;
40793;SDS011;26502;51.886;15.604;2023-07-29T00:13:55;4.40;;;4.00;;
40793;SDS011;26502;51.886;15.604;2023-07-29T00:18:59;5.10;;;4.20;;
40793;SDS011;26502;51.886;15.604;2023-07-29T00:24:02;6.90;;;3.90;;
40793;SDS011;26502;51.886;15.604;2023-07-29T00:29:05;7.30;;;4.30;;
40793;SDS011;26502;51.886;15.604;2023-07-29T00:34:09;6.20;;;3.90;;
40793;SDS011;26502;51.886;15.604;2023-07-29T00:39:12;6.10;;;4.30;;
40793;SDS011;26502;51.886;15.604;2023-07-29T00:44:15;5.30;;;4.10;;
40793;SDS011;26502;51.886;15.604;2023-07-29T00:49:19;6.60;;;4.30;;
40793;SDS011;26502;51.886;15.604;2023-07-29T00:54:23;6.50;;;4.10;;
40793;SDS011;26502;51.886;15.604;2023-07-29T00:59:26;7.60;;;4.00;;
40793;SDS011;26502;51.886;15.604;2023-07-29T01:04:33;4.20;;;3.90;;
40793;SDS011;26502;51.886;15.604;2023-07-29T01:09:38;6.30;;;3.40;;
40793;SDS011;26502;51.886;15.604;2023-07-29T01:14:46;12.50;;;3.30;;
40793;SDS011;26502;51.886;15.604;2023-07-29T01:19:59;4.50;;;3.50;;
40793;SDS011;26502;51.886;15.604;2023-07-29T01:25:07;5.80;;;3.40;;
40793;SDS011;26502;51.886;15.604;2023-07-29T01:30:10;5.90;;;3.70;;
40793;SDS011;26502;51.886;15.604;2023-07-29T01:35:17;4.80;;;3.70;;
40793;SDS011;26502;51.886;15.604;2023-07-29T01:40:26;6.20;;;3.50;;
40793;SDS011;26502;51.886;15.604;2023-07-29T01:45:30;4.10;;;3.60;;
40793;SDS011;26502;51.886;15.604;2023-07-29T01:50:37;4.40;;;4.00;;
40793;SDS011;26502;51.886;15.604;2023-07-29T01:55:41;4.30;;;3.70;;
40793;SDS011;26502;51.886;15.604;2023-07-29T02:00:46;4.90;;;4.10;;
40793;SDS011;26502;51.886;15.604;2023-07-29T02:05:49;7.10;;;4.00;;
40793;SDS011;26502;51.886;15.604;2023-07-29T02:10:52;11.30;;;4.40;;
40793;SDS011;26502;51.886;15.604;2023-07-29T02:15:56;9.60;;;4.10;;
40793;SDS011;26502;51.886;15.604;2023-07-29T02:20:59;7.00;;;4.70;;
40793;SDS011;26502;51.886;15.604;2023-07-29T02:26:02;10.30;;;4.50;;
40793;SDS011;26502;51.886;15.604;2023-07-29T02:31:15;6.80;;;5.10;;
40793;SDS011;26502;51.886;15.604;2023-07-29T02:36:20;7.10;;;4.50;;
40793;SDS011;26502;51.886;15.604;2023-07-29T02:41:23;5.00;;;4.50;;
40793;SDS011;26502;51.886;15.604;2023-07-29T02:46:26;5.00;;;4.10;;
40793;SDS011;26502;51.886;15.604;2023-07-29T02:51:30;9.60;;;4.70;;
40793;SDS011;26502;51.886;15.604;2023-07-29T02:56:33;5.10;;;3.90;;
40793;SDS011;26502;51.886;15.604;2023-07-29T03:01:37;7.30;;;4.00;;
40793;SDS011;26502;51.886;15.604;2023-07-29T03:06:40;4.50;;;4.00;;
40793;SDS011;26502;51.886;15.604;2023-07-29T03:11:44;3.90;;;3.60;;
40793;SDS011;26502;51.886;15.604;2023-07-29T03:16:47;5.30;;;3.90;;
40793;SDS011;26502;51.886;15.604;2023-07-29T03:21:51;7.80;;;3.90;;
40793;SDS011;26502;51.886;15.604;2023-07-29T03:26:54;5.60;;;3.90;;
40793;SDS011;26502;51.886;15.604;2023-07-29T03:31:57;6.00;;;3.70;;
40793;SDS011;26502;51.886;15.604;2023-07-29T03:37:01;6.40;;;4.00;;
40793;SDS011;26502;51.886;15.604;2023-07-29T03:42:05;5.60;;;3.70;;
40793;SDS011;26502;51.886;15.604;2023-07-29T03:47:08;5.20;;;4.00;;
40793;SDS011;26502;51.886;15.604;2023-07-29T03:52:12;4.90;;;3.40;;
40793;SDS011;26502;51.886;15.604;2023-07-29T03:57:15;7.40;;;3.80;;
40793;SDS011;26502;51.886;15.604;2023-07-29T04:02:19;3.60;;;3.30;;
40793;SDS011;26502;51.886;15.604;2023-07-29T04:07:22;6.40;;;4.20;;
40793;SDS011;26502;51.886;15.604;2023-07-29T04:12:26;7.30;;;3.70;;
40793;SDS011;26502;51.886;15.604;2023-07-29T04:17:29;4.70;;;3.40;;
40793;SDS011;26502;51.886;15.604;2023-07-29T04:22:33;8.40;;;3.60;;
40793;SDS011;26502;51.886;15.604;2023-07-29T04:27:36;5.10;;;2.90;;
40793;SDS011;26502;51.886;15.604;2023-07-29T04:32:40;3.60;;;3.20;;
40793;SDS011;26502;51.886;15.604;2023-07-29T04:37:44;5.10;;;3.60;;
40793;SDS011;26502;51.886;15.604;2023-07-29T04:42:49;7.30;;;4.70;;
40793;SDS011;26502;51.886;15.604;2023-07-29T04:47:53;6.30;;;4.30;;
40793;SDS011;26502;51.886;15.604;2023-07-29T04:52:56;10.50;;;4.70;;
40793;SDS011;26502;51.886;15.604;2023-07-29T04:57:59;9.60;;;4.80;;
40793;SDS011;26502;51.886;15.604;2023-07-29T05:03:03;7.70;;;4.40;;
40793;SDS011;26502;51.886;15.604;2023-07-29T05:08:06;7.10;;;4.20;;
40793;SDS011;26502;51.886;15.604;2023-07-29T05:13:09;7.40;;;4.40;;
40793;SDS011;26502;51.886;15.604;2023-07-29T05:18:13;9.20;;;5.20;;
40793;SDS011;26502;51.886;15.604;2023-07-29T05:23:17;6.20;;;5.70;;
40793;SDS011;26502;51.886;15.604;2023-07-29T05:28:20;6.80;;;6.20;;
40793;SDS011;26502;51.886;15.604;2023-07-29T05:33:24;7.40;;;6.60;;
40793;SDS011;26502;51.886;15.604;2023-07-29T05:38:27;7.10;;;6.30;;
40793;SDS011;26502;51.886;15.604;2023-07-29T05:43:30;7.00;;;5.80;;
40793;SDS011;26502;51.886;15.604;2023-07-29T05:48:33;7.50;;;5.80;;
40793;SDS011;26502;51.886;15.604;2023-07-29T05:53:38;6.40;;;5.90;;
40793;SDS011;26502;51.886;15.604;2023-07-29T05:58:41;11.90;;;8.70;;
40793;SDS011;26502;51.886;15.604;2023-07-29T06:03:45;5.50;;;5.10;;
40793;SDS011;26502;51.886;15.604;2023-07-29T06:08:49;6.20;;;5.70;;
40793;SDS011;26502;51.886;15.604;2023-07-29T06:13:53;6.30;;;5.40;;
40793;SDS011;26502;51.886;15.604;2023-07-29T06:18:56;5.30;;;4.90;;
40793;SDS011;26502;51.886;15.604;2023-07-29T06:24:00;10.00;;;5.80;;
40793;SDS011;26502;51.886;15.604;2023-07-29T06:29:03;7.00;;;5.10;;
40793;SDS011;26502;51.886;15.604;2023-07-29T06:34:06;6.20;;;5.00;;
40793;SDS011;26502;51.886;15.604;2023-07-29T06:39:10;6.00;;;5.00;;
40793;SDS011;26502;51.886;15.604;2023-07-29T06:44:13;5.40;;;4.90;;
40793;SDS011;26502;51.886;15.604;2023-07-29T06:49:16;4.70;;;4.30;;
40793;SDS011;26502;51.886;15.604;2023-07-29T06:54:22;4.70;;;4.40;;
40793;SDS011;26502;51.886;15.604;2023-07-29T06:59:27;5.10;;;4.10;;
40793;SDS011;26502;51.886;15.604;2023-07-29T07:04:30;4.70;;;4.30;;
40793;SDS011;26502;51.886;15.604;2023-07-29T07:09:34;5.70;;;3.70;;
40793;SDS011;26502;51.886;15.604;2023-07-29T07:14:37;4.80;;;3.70;;
40793;SDS011;26502;51.886;15.604;2023-07-29T07:19:41;3.30;;;3.00;;
40793;SDS011;26502;51.886;15.604;2023-07-29T07:24:44;3.10;;;2.90;;
40793;SDS011;26502;51.886;15.604;2023-07-29T07:29:47;7.80;;;3.10;;
40793;SDS011;26502;51.886;15.604;2023-07-29T07:34:51;3.90;;;2.80;;
40793;SDS011;26502;51.886;15.604;2023-07-29T07:39:54;4.30;;;2.70;;
40793;SDS011;26502;51.886;15.604;2023-07-29T07:44:57;3.00;;;2.70;;
40793;SDS011;26502;51.886;15.604;2023-07-29T07:50:01;6.70;;;2.70;;
40793;SDS011;26502;51.886;15.604;2023-07-29T07:55:05;3.10;;;2.50;;
40793;SDS011;26502;51.886;15.604;2023-07-29T08:00:11;2.30;;;2.10;;
40793;SDS011;26502;51.886;15.604;2023-07-29T08:10:20;2.70;;;2.50;;
40793;SDS011;26502;51.886;15.604;2023-07-29T08:15:23;2.30;;;2.10;;
40793;SDS011;26502;51.886;15.604;2023-07-29T08:20:27;1.80;;;1.70;;
40793;SDS011;26502;51.886;15.604;2023-07-29T08:25:30;2.00;;;1.80;;
40793;SDS011;26502;51.886;15.604;2023-07-29T08:30:33;2.00;;;1.90;;
40793;SDS011;26502;51.886;15.604;2023-07-29T08:35:37;1.70;;;1.60;;
40793;SDS011;26502;51.886;15.604;2023-07-29T08:40:41;4.30;;;2.00;;
40793;SDS011;26502;51.886;15.604;2023-07-29T08:45:49;2.70;;;1.70;;
40793;SDS011;26502;51.886;15.604;2023-07-29T08:50:54;1.60;;;1.50;;
40793;SDS011;26502;51.886;15.604;2023-07-29T08:55:57;1.90;;;1.70;;
40793;SDS011;26502;51.886;15.604;2023-07-29T09:01:01;1.90;;;1.80;;
40793;SDS011;26502;51.886;15.604;2023-07-29T09:06:04;2.80;;;1.70;;
40793;SDS011;26502;51.886;15.604;2023-07-29T09:11:09;1.80;;;1.40;;
40793;SDS011;26502;51.886;15.604;2023-07-29T09:16:15;1.60;;;1.50;;
40793;SDS011;26502;51.886;15.604;2023-07-29T09:21:20;1.50;;;1.40;;
40793;SDS011;26502;51.886;15.604;2023-07-29T09:26:26;1.50;;;1.40;;
40793;SDS011;26502;51.886;15.604;2023-07-29T09:31:30;3.50;;;1.60;;
40793;SDS011;26502;51.886;15.604;2023-07-29T09:36:33;2.00;;;1.50;;
40793;SDS011;26502;51.886;15.604;2023-07-29T09:41:37;2.10;;;1.40;;
40793;SDS011;26502;51.886;15.604;2023-07-29T09:46:40;1.30;;;1.20;;
40793;SDS011;26502;51.886;15.604;2023-07-29T09:51:49;1.80;;;1.30;;
40793;SDS011;26502;51.886;15.604;2023-07-29T09:56:52;2.00;;;1.10;;
40793;SDS011;26502;51.886;15.604;2023-07-29T10:01:56;1.20;;;1.10;;
40793;SDS011;26502;51.886;15.604;2023-07-29T10:06:59;1.40;;;1.20;;
40793;SDS011;26502;51.886;15.604;2023-07-29T10:12:04;2.70;;;1.00;;
40793;SDS011;26502;51.886;15.604;2023-07-29T10:22:16;2.50;;;0.80;;
40793;SDS011;26502;51.886;15.604;2023-07-29T10:27:22;1.40;;;1.30;;
40793;SDS011;26502;51.886;15.604;2023-07-29T10:37:33;1.00;;;1.00;;
40793;SDS011;26502;51.886;15.604;2023-07-29T10:42:37;0.90;;;0.90;;
40793;SDS011;26502;51.886;15.604;2023-07-29T10:48:01;1.20;;;1.10;;
40793;SDS011;26502;51.886;15.604;2023-07-29T10:53:10;0.90;;;0.80;;
40793;SDS011;26502;51.886;15.604;2023-07-29T10:58:14;0.70;;;0.70;;
40793;SDS011;26502;51.886;15.604;2023-07-29T11:03:19;2.70;;;0.80;;
40793;SDS011;26502;51.886;15.604;2023-07-29T11:08:27;0.80;;;0.80;;
40793;SDS011;26502;51.886;15.604;2023-07-29T11:13:32;2.30;;;0.80;;
40793;SDS011;26502;51.886;15.604;2023-07-29T11:18:37;1.00;;;0.80;;
40793;SDS011;26502;51.886;15.604;2023-07-29T11:23:42;0.80;;;0.80;;
40793;SDS011;26502;51.886;15.604;2023-07-29T11:28:46;1.10;;;0.90;;
40793;SDS011;26502;51.886;15.604;2023-07-29T11:33:49;1.10;;;1.00;;
40793;SDS011;26502;51.886;15.604;2023-07-29T11:38:53;2.90;;;0.70;;
40793;SDS011;26502;51.886;15.604;2023-07-29T11:43:56;1.20;;;0.90;;
40793;SDS011;26502;51.886;15.604;2023-07-29T11:48:59;2.90;;;1.10;;
40793;SDS011;26502;51.886;15.604;2023-07-29T11:54:04;1.60;;;0.90;;
40793;SDS011;26502;51.886;15.604;2023-07-29T11:59:08;3.30;;;0.90;;
40793;SDS011;26502;51.886;15.604;2023-07-29T12:04:11;1.50;;;1.00;;
40793;SDS011;26502;51.886;15.604;2023-07-29T12:09:16;2.90;;;0.80;;
40793;SDS011;26502;51.886;15.604;2023-07-29T12:14:19;2.60;;;0.90;;
40793;SDS011;26502;51.886;15.604;2023-07-29T12:19:22;1.20;;;1.10;;
40793;SDS011;26502;51.886;15.604;2023-07-29T12:24:26;0.90;;;0.90;;
40793;SDS011;26502;51.886;15.604;2023-07-29T12:29:31;6.10;;;1.00;;
40793;SDS011;26502;51.886;15.604;2023-07-29T12:34:41;2.10;;;1.40;;
40793;SDS011;26502;51.886;15.604;2023-07-29T12:39:44;1.30;;;1.00;;
40793;SDS011;26502;51.886;15.604;2023-07-29T12:44:52;1.50;;;1.10;;
40793;SDS011;26502;51.886;15.604;2023-07-29T12:49:55;1.60;;;1.50;;
40793;SDS011;26502;51.886;15.604;2023-07-29T12:54:58;1.40;;;1.30;;
40793;SDS011;26502;51.886;15.604;2023-07-29T13:00:03;1.10;;;1.00;;
40793;SDS011;26502;51.886;15.604;2023-07-29T13:05:09;1.60;;;1.00;;
40793;SDS011;26502;51.886;15.604;2023-07-29T13:10:13;1.50;;;1.10;;
40793;SDS011;26502;51.886;15.604;2023-07-29T13:15:16;4.50;;;1.50;;
40793;SDS011;26502;51.886;15.604;2023-07-29T13:20:20;2.70;;;1.10;;
40793;SDS011;26502;51.886;15.604;2023-07-29T13:25:24;2.80;;;1.30;;
40793;SDS011;26502;51.886;15.604;2023-07-29T13:30:27;5.50;;;1.40;;
40793;SDS011;26502;51.886;15.604;2023-07-29T13:35:31;4.80;;;1.60;;
40793;SDS011;26502;51.886;15.604;2023-07-29T13:40:34;1.30;;;1.20;;
40793;SDS011;26502;51.886;15.604;2023-07-29T13:45:37;2.40;;;1.40;;
40793;SDS011;26502;51.886;15.604;2023-07-29T13:50:41;2.20;;;1.10;;
40793;SDS011;26502;51.886;15.604;2023-07-29T13:55:45;1.60;;;1.50;;
40793;SDS011;26502;51.886;15.604;2023-07-29T14:00:49;5.90;;;1.70;;
40793;SDS011;26502;51.886;15.604;2023-07-29T14:05:54;4.70;;;1.90;;
40793;SDS011;26502;51.886;15.604;2023-07-29T14:10:57;3.00;;;1.70;;
40793;SDS011;26502;51.886;15.604;2023-07-29T14:16:01;9.10;;;2.10;;
40793;SDS011;26502;51.886;15.604;2023-07-29T14:21:04;2.70;;;1.60;;
40793;SDS011;26502;51.886;15.604;2023-07-29T14:26:08;3.00;;;2.00;;
40793;SDS011;26502;51.886;15.604;2023-07-29T14:31:11;2.10;;;1.90;;
40793;SDS011;26502;51.886;15.604;2023-07-29T14:36:15;2.20;;;2.00;;
40793;SDS011;26502;51.886;15.604;2023-07-29T14:41:18;2.40;;;2.20;;
40793;SDS011;26502;51.886;15.604;2023-07-29T14:46:21;13.70;;;9.80;;
40793;SDS011;26502;51.886;15.604;2023-07-29T14:51:25;3.80;;;1.80;;
40793;SDS011;26502;51.886;15.604;2023-07-29T14:56:28;4.90;;;3.60;;
40793;SDS011;26502;51.886;15.604;2023-07-29T15:01:31;7.40;;;2.70;;
40793;SDS011;26502;51.886;15.604;2023-07-29T15:06:35;2.30;;;2.10;;
40793;SDS011;26502;51.886;15.604;2023-07-29T15:11:38;4.40;;;1.80;;
40793;SDS011;26502;51.886;15.604;2023-07-29T15:16:42;7.20;;;2.00;;
40793;SDS011;26502;51.886;15.604;2023-07-29T15:21:45;2.70;;;1.70;;
40793;SDS011;26502;51.886;15.604;2023-07-29T15:26:49;1.90;;;1.60;;
40793;SDS011;26502;51.886;15.604;2023-07-29T15:31:52;1.60;;;1.30;;
40793;SDS011;26502;51.886;15.604;2023-07-29T15:36:55;1.80;;;1.70;;
40793;SDS011;26502;51.886;15.604;2023-07-29T15:41:58;1.60;;;1.20;;
40793;SDS011;26502;51.886;15.604;2023-07-29T15:47:02;1.10;;;0.90;;
40793;SDS011;26502;51.886;15.604;2023-07-29T15:52:07;0.90;;;0.80;;
40793;SDS011;26502;51.886;15.604;2023-07-29T15:57:12;1.20;;;0.90;;
40793;SDS011;26502;51.886;15.604;2023-07-29T16:02:15;2.80;;;1.40;;
40793;SDS011;26502;51.886;15.604;2023-07-29T16:07:20;3.00;;;1.10;;
40793;SDS011;26502;51.886;15.604;2023-07-29T16:12:23;2.30;;;1.20;;
40793;SDS011;26502;51.886;15.604;2023-07-29T16:17:27;3.10;;;1.50;;
40793;SDS011;26502;51.886;15.604;2023-07-29T16:22:30;1.80;;;1.40;;
40793;SDS011;26502;51.886;15.604;2023-07-29T16:27:34;2.30;;;1.50;;
40793;SDS011;26502;51.886;15.604;2023-07-29T16:32:37;3.90;;;1.70;;
40793;SDS011;26502;51.886;15.604;2023-07-29T16:37:41;2.10;;;1.60;;
40793;SDS011;26502;51.886;15.604;2023-07-29T16:42:44;5.50;;;1.70;;
40793;SDS011;26502;51.886;15.604;2023-07-29T16:47:47;7.30;;;1.60;;
40793;SDS011;26502;51.886;15.604;2023-07-29T16:52:51;3.50;;;1.30;;
40793;SDS011;26502;51.886;15.604;2023-07-29T16:57:55;6.50;;;1.50;;
40793;SDS011;26502;51.886;15.604;2023-07-29T17:02:59;3.20;;;2.00;;
40793;SDS011;26502;51.886;15.604;2023-07-29T17:08:02;3.30;;;1.80;;
40793;SDS011;26502;51.886;15.604;2023-07-29T17:13:06;2.30;;;1.80;;
40793;SDS011;26502;51.886;15.604;2023-07-29T17:18:09;3.90;;;1.70;;
40793;SDS011;26502;51.886;15.604;2023-07-29T17:23:12;2.50;;;1.90;;
40793;SDS011;26502;51.886;15.604;2023-07-29T17:28:16;3.10;;;1.70;;
40793;SDS011;26502;51.886;15.604;2023-07-29T17:33:19;2.70;;;1.60;;
40793;SDS011;26502;51.886;15.604;2023-07-29T17:38:22;2.00;;;1.80;;
40793;SDS011;26502;51.886;15.604;2023-07-29T17:43:26;3.90;;;1.90;;
40793;SDS011;26502;51.886;15.604;2023-07-29T17:48:29;3.40;;;2.20;;
40793;SDS011;26502;51.886;15.604;2023-07-29T17:53:33;2.70;;;2.50;;
40793;SDS011;26502;51.886;15.604;2023-07-29T17:58:36;2.40;;;2.20;;
40793;SDS011;26502;51.886;15.604;2023-07-29T18:03:40;2.60;;;2.40;;
40793;SDS011;26502;51.886;15.604;2023-07-29T18:08:43;4.30;;;2.70;;
40793;SDS011;26502;51.886;15.604;2023-07-29T18:13:47;4.50;;;2.80;;
40793;SDS011;26502;51.886;15.604;2023-07-29T18:18:50;5.40;;;2.40;;
40793;SDS011;26502;51.886;15.604;2023-07-29T18:23:53;2.60;;;2.30;;
40793;SDS011;26502;51.886;15.604;2023-07-29T18:28:57;4.30;;;2.10;;
40793;SDS011;26502;51.886;15.604;2023-07-29T18:34:00;2.40;;;1.90;;
40793;SDS011;26502;51.886;15.604;2023-07-29T18:39:04;2.80;;;1.90;;
40793;SDS011;26502;51.886;15.604;2023-07-29T18:44:07;6.30;;;3.30;;
40793;SDS011;26502;51.886;15.604;2023-07-29T18:49:11;2.90;;;2.60;;
40793;SDS011;26502;51.886;15.604;2023-07-29T18:54:14;4.20;;;3.10;;
40793;SDS011;26502;51.886;15.604;2023-07-29T18:59:17;3.80;;;3.10;;
40793;SDS011;26502;51.886;15.604;2023-07-29T19:04:23;6.60;;;3.90;;
40793;SDS011;26502;51.886;15.604;2023-07-29T19:09:27;5.50;;;3.60;;
40793;SDS011;26502;51.886;15.604;2023-07-29T19:14:30;9.30;;;3.70;;
40793;SDS011;26502;51.886;15.604;2023-07-29T19:19:33;6.60;;;3.50;;
40793;SDS011;26502;51.886;15.604;2023-07-29T19:24:37;6.40;;;3.20;;
40793;SDS011;26502;51.886;15.604;2023-07-29T19:29:41;3.60;;;2.50;;
40793;SDS011;26502;51.886;15.604;2023-07-29T19:34:46;3.80;;;2.30;;
40793;SDS011;26502;51.886;15.604;2023-07-29T19:39:55;3.00;;;2.00;;
40793;SDS011;26502;51.886;15.604;2023-07-29T19:44:59;2.60;;;1.90;;
40793;SDS011;26502;51.886;15.604;2023-07-29T19:50:04;4.30;;;2.20;;
40793;SDS011;26502;51.886;15.604;2023-07-29T19:55:09;3.40;;;2.20;;
40793;SDS011;26502;51.886;15.604;2023-07-29T20:00:13;4.40;;;2.40;;
40793;SDS011;26502;51.886;15.604;2023-07-29T20:05:18;3.50;;;2.00;;
40793;SDS011;26502;51.886;15.604;2023-07-29T20:10:24;5.90;;;2.40;;
40793;SDS011;26502;51.886;15.604;2023-07-29T20:15:28;3.90;;;2.80;;
40793;SDS011;26502;51.886;15.604;2023-07-29T20:20:32;3.10;;;2.70;;
40793;SDS011;26502;51.886;15.604;2023-07-29T20:25:36;2.70;;;2.50;;
40793;SDS011;26502;51.886;15.604;2023-07-29T20:30:42;2.90;;;2.60;;
40793;SDS011;26502;51.886;15.604;2023-07-29T20:35:52;4.30;;;2.50;;
40793;SDS011;26502;51.886;15.604;2023-07-29T20:40:58;4.10;;;2.70;;
40793;SDS011;26502;51.886;15.604;2023-07-29T20:46:01;3.70;;;2.50;;
40793;SDS011;26502;51.886;15.604;2023-07-29T20:51:05;2.80;;;2.20;;
40793;SDS011;26502;51.886;15.604;2023-07-29T20:56:09;6.30;;;2.50;;
40793;SDS011;26502;51.886;15.604;2023-07-29T21:01:12;3.20;;;2.40;;
40793;SDS011;26502;51.886;15.604;2023-07-29T21:06:15;9.30;;;3.50;;
40793;SDS011;26502;51.886;15.604;2023-07-29T21:11:19;3.20;;;2.30;;
40793;SDS011;26502;51.886;15.604;2023-07-29T21:16:23;5.10;;;2.70;;
40793;SDS011;26502;51.886;15.604;2023-07-29T21:21:26;3.60;;;2.60;;
40793;SDS011;26502;51.886;15.604;2023-07-29T21:26:29;3.80;;;2.70;;
40793;SDS011;26502;51.886;15.604;2023-07-29T21:31:33;5.20;;;3.10;;
40793;SDS011;26502;51.886;15.604;2023-07-29T21:36:36;3.30;;;2.70;;
40793;SDS011;26502;51.886;15.604;2023-07-29T21:41:39;4.30;;;3.30;;
40793;SDS011;26502;51.886;15.604;2023-07-29T21:46:42;5.40;;;2.60;;
40793;SDS011;26502;51.886;15.604;2023-07-29T21:51:46;4.70;;;2.90;;
40793;SDS011;26502;51.886;15.604;2023-07-29T21:56:49;4.90;;;3.00;;
40793;SDS011;26502;51.886;15.604;2023-07-29T22:01:52;3.20;;;2.90;;
40793;SDS011;26502;51.886;15.604;2023-07-29T22:06:56;6.00;;;3.20;;
40793;SDS011;26502;51.886;15.604;2023-07-29T22:11:59;3.10;;;2.80;;
40793;SDS011;26502;51.886;15.604;2023-07-29T22:17:03;3.40;;;2.80;;
40793;SDS011;26502;51.886;15.604;2023-07-29T22:22:07;3.60;;;2.90;;
40793;SDS011;26502;51.886;15.604;2023-07-29T22:27:10;4.70;;;3.00;;
40793;SDS011;26502;51.886;15.604;2023-07-29T22:32:14;3.40;;;2.90;;
40793;SDS011;26502;51.886;15.604;2023-07-29T22:37:17;5.90;;;2.90;;
40793;SDS011;26502;51.886;15.604;2023-07-29T22:42:20;6.60;;;3.30;;
40793;SDS011;26502;51.886;15.604;2023-07-29T22:47:24;7.70;;;4.30;;
40793;SDS011;26502;51.886;15.604;2023-07-29T22:52:27;4.90;;;3.40;;
40793;SDS011;26502;51.886;15.604;2023-07-29T22:57:30;5.40;;;3.10;;
40793;SDS011;26502;51.886;15.604;2023-07-29T23:02:34;4.40;;;3.20;;
40793;SDS011;26502;51.886;15.604;2023-07-29T23:07:37;5.20;;;2.90;;
40793;SDS011;26502;51.886;15.604;2023-07-29T23:12:41;4.30;;;3.20;;
40793;SDS011;26502;51.886;15.604;2023-07-29T23:17:44;5.10;;;3.20;;
40793;SDS011;26502;51.886;15.604;2023-07-29T23:22:47;3.80;;;3.40;;
40793;SDS011;26502;51.886;15.604;2023-07-29T23:27:51;4.20;;;3.10;;
40793;SDS011;26502;51.886;15.604;2023-07-29T23:32:54;4.80;;;3.30;;
40793;SDS011;26502;51.886;15.604;2023-07-29T23:37:58;7.80;;;3.30;;
40793;SDS011;26502;51.886;15.604;2023-07-29T23:43:01;7.80;;;3.40;;
40793;SDS011;26502;51.886;15.604;2023-07-29T23:48:04;4.90;;;3.90;;
40793;SDS011;26502;51.886;15.604;2023-07-29T23:53:08;4.50;;;4.00;;
40793;SDS011;26502;51.886;15.604;2023-07-29T23:58:11;5.80;;;3.90;;
